createdAt,value
2018-07-19T00:01:20.073Z,1.93
2018-07-19T00:03:50.422Z,2.00
2018-07-19T00:06:20.712Z,1.53
2018-07-19T00:08:51.062Z,2.07
2018-07-19T00:11:21.419Z,2.07
2018-07-19T00:13:51.766Z,2.63
2018-07-19T00:16:22.083Z,1.90
2018-07-19T00:18:52.479Z,1.77
2018-07-19T00:21:22.746Z,1.87
2018-07-19T00:23:53.066Z,1.67
2018-07-19T00:26:23.421Z,1.70
2018-07-19T00:28:53.737Z,1.70
2018-07-19T00:31:24.092Z,1.70
2018-07-19T00:33:54.426Z,2.20
2018-07-19T00:36:24.712Z,1.70
2018-07-19T00:38:55.034Z,1.50
2018-07-19T00:41:25.325Z,1.93
2018-07-19T00:43:55.668Z,2.80
2018-07-19T00:46:26.006Z,1.83
2018-07-19T00:48:56.368Z,1.87
2018-07-19T00:51:26.756Z,1.70
2018-07-19T00:53:57.109Z,1.50
2018-07-19T00:56:27.687Z,1.93
2018-07-19T00:58:58.045Z,1.97
2018-07-19T01:01:28.440Z,1.90
2018-07-19T01:03:58.911Z,2.13
2018-07-19T01:06:29.226Z,1.90
2018-07-19T01:08:59.592Z,1.80
2018-07-19T01:11:29.952Z,1.40
2018-07-19T01:14:00.242Z,1.90
2018-07-19T01:16:30.556Z,1.67
2018-07-19T01:19:00.848Z,1.60
2018-07-19T01:21:31.348Z,2.10
2018-07-19T01:24:02.134Z,2.20
2018-07-19T01:26:32.424Z,2.50
2018-07-19T01:29:02.804Z,1.70
2018-07-19T01:31:33.124Z,3.10
2018-07-19T01:34:03.496Z,1.77
2018-07-19T01:36:33.760Z,4.93
2018-07-19T01:39:05.185Z,2.10
2018-07-19T01:42:27.081Z,4.90
2018-07-19T01:44:57.503Z,2.30
2018-07-19T01:47:27.959Z,2.43
2018-07-19T01:49:58.298Z,3.20
2018-07-19T01:52:28.745Z,1.80
2018-07-19T01:54:59.101Z,2.00
2018-07-19T01:57:29.431Z,2.30
2018-07-19T01:59:59.798Z,2.10
2018-07-19T02:02:30.125Z,2.40
2018-07-19T02:05:00.436Z,1.97
2018-07-19T02:07:30.726Z,2.00
2018-07-19T02:10:01.091Z,2.17
2018-07-19T02:12:31.519Z,1.87
2018-07-19T02:15:01.905Z,1.83
2018-07-19T02:17:32.248Z,2.00
2018-07-19T02:20:02.258Z,1.73
2018-07-19T02:22:32.516Z,2.00
2018-07-19T02:25:02.849Z,2.00
2018-07-19T02:27:33.109Z,2.00
2018-07-19T02:30:03.551Z,2.30
2018-07-19T02:32:33.899Z,2.00
2018-07-19T02:35:04.301Z,1.77
2018-07-19T02:37:34.629Z,1.97
2018-07-19T02:40:05.161Z,2.00
2018-07-19T02:42:35.517Z,1.67
2018-07-19T02:45:05.816Z,2.63
2018-07-19T02:47:36.120Z,1.70
2018-07-19T02:50:06.596Z,2.10
2018-07-19T02:52:36.884Z,1.70
2018-07-19T02:55:07.217Z,1.80
2018-07-19T02:57:37.526Z,2.20
2018-07-19T03:00:07.949Z,1.83
2018-07-19T03:02:38.237Z,2.13
2018-07-19T03:05:08.601Z,2.17
2018-07-19T03:07:38.936Z,2.23
2018-07-19T03:10:09.297Z,2.13
2018-07-19T03:12:39.592Z,2.20
2018-07-19T03:15:09.551Z,2.00
2018-07-19T03:17:39.914Z,2.60
2018-07-19T03:20:10.231Z,2.10
2018-07-19T03:22:40.573Z,2.17
2018-07-19T03:25:10.848Z,2.50
2018-07-19T03:27:41.121Z,2.73
2018-07-19T03:30:11.436Z,2.30
2018-07-19T03:32:41.727Z,6.37
2018-07-19T03:35:12.229Z,4.67
2018-07-19T03:37:42.553Z,3.03
2018-07-19T03:40:13.066Z,6.23
2018-07-19T03:42:43.322Z,3.10
2018-07-19T03:45:13.592Z,3.17
2018-07-19T03:47:43.893Z,3.40
2018-07-19T03:50:14.308Z,3.07
2018-07-19T03:52:44.661Z,2.80
2018-07-19T03:55:14.982Z,5.20
2018-07-19T03:57:45.366Z,3.97
2018-07-19T04:00:15.688Z,3.30
2018-07-19T04:02:46.044Z,2.77
2018-07-19T04:05:16.423Z,4.33
2018-07-19T04:07:46.738Z,3.23
2018-07-19T04:10:17.099Z,4.07
2018-07-19T04:12:47.478Z,3.80
2018-07-19T04:15:17.929Z,3.33
2018-07-19T04:17:56.154Z,3.50
2018-07-19T04:33:17.525Z,3.60
2018-07-19T04:35:48.277Z,3.40
2018-07-19T04:38:18.871Z,3.37
2018-07-19T04:40:49.149Z,3.10
2018-07-19T04:43:19.544Z,3.90
2018-07-19T04:45:49.895Z,3.13
2018-07-19T04:48:20.267Z,9.43
2018-07-19T04:50:50.580Z,18.33
2018-07-19T04:53:20.899Z,6.30
2018-07-19T04:55:51.207Z,4.63
2018-07-19T04:58:21.607Z,3.50
2018-07-19T05:00:51.933Z,5.20
2018-07-19T05:03:22.222Z,4.53
2018-07-19T05:05:52.581Z,3.80
2018-07-19T05:08:22.831Z,4.10
2018-07-19T05:10:53.188Z,3.70
2018-07-19T05:13:23.485Z,4.17
2018-07-19T05:15:54.000Z,3.90
2018-07-19T05:18:24.280Z,2.90
2018-07-19T05:20:54.561Z,4.10
2018-07-19T05:23:24.897Z,3.60
2018-07-19T05:25:55.868Z,3.57
2018-07-19T05:28:26.295Z,3.17
2018-07-19T05:30:56.598Z,4.60
2018-07-19T05:33:26.889Z,4.27
2018-07-19T05:35:57.215Z,3.87
2018-07-19T05:38:27.546Z,4.80
2018-07-19T05:40:57.853Z,4.50
2018-07-19T05:43:28.189Z,4.63
2018-07-19T05:45:58.546Z,4.20
2018-07-19T05:48:28.788Z,5.23
2018-07-19T05:50:59.146Z,3.10
2018-07-19T05:53:29.453Z,4.47
2018-07-19T05:55:59.820Z,3.63
2018-07-19T05:58:30.141Z,3.33
2018-07-19T06:01:01.377Z,4.30
2018-07-19T06:03:31.689Z,4.67
2018-07-19T06:06:02.035Z,3.70
2018-07-19T06:08:32.276Z,3.40
2018-07-19T06:11:02.789Z,3.87
2018-07-19T06:13:34.501Z,3.33
2018-07-19T06:16:05.207Z,3.90
2018-07-19T06:18:35.507Z,3.13
2018-07-19T06:21:05.817Z,3.70
2018-07-19T06:23:36.154Z,3.77
2018-07-19T06:26:06.719Z,3.97
2018-07-19T06:28:36.988Z,4.53
2018-07-19T06:31:07.430Z,3.20
2018-07-19T06:33:37.723Z,4.63
2018-07-19T06:36:08.018Z,4.30
2018-07-19T06:38:38.712Z,3.70
2018-07-19T06:41:09.941Z,3.77
2018-07-19T06:43:40.174Z,4.33
2018-07-19T06:46:10.614Z,3.80
2018-07-19T06:48:40.933Z,4.80
2018-07-19T06:51:11.331Z,4.70
2018-07-19T06:53:41.615Z,3.50
2018-07-19T06:56:11.929Z,3.27
2018-07-19T06:58:42.253Z,2.90
2018-07-19T07:01:12.561Z,4.43
2018-07-19T07:03:42.931Z,3.53
2018-07-19T07:06:13.235Z,5.00
2018-07-19T07:08:43.565Z,3.60
2018-07-19T07:11:13.813Z,2.80
2018-07-19T07:13:44.133Z,2.73
2018-07-19T07:16:14.470Z,2.70
2018-07-19T07:18:44.745Z,2.50
2018-07-19T07:21:15.143Z,2.70
2018-07-19T07:23:45.385Z,3.20
2018-07-19T07:26:17.969Z,8.30
2018-07-19T07:28:48.339Z,7.30
2018-07-19T07:31:18.634Z,4.20
2018-07-19T07:33:48.996Z,3.50
2018-07-19T07:36:19.226Z,3.30
2018-07-19T07:38:49.579Z,2.60
2018-07-19T07:41:19.838Z,2.17
2018-07-19T07:43:50.129Z,2.10
2018-07-19T07:46:20.532Z,2.10
2018-07-19T07:48:50.869Z,2.20
2018-07-19T07:51:20.829Z,2.43
2018-07-19T07:53:51.534Z,3.73
2018-07-19T07:56:21.868Z,1.70
2018-07-19T07:58:52.132Z,2.50
2018-07-19T08:01:22.417Z,5.30
2018-07-19T08:03:52.757Z,15.50
2018-07-19T08:06:23.083Z,4.67
2018-07-19T08:08:53.345Z,2.43
2018-07-19T08:11:23.729Z,2.00
2018-07-19T08:13:54.398Z,1.63
2018-07-19T08:16:24.793Z,1.70
2018-07-19T08:18:55.102Z,8.83
2018-07-19T08:21:25.476Z,2.23
2018-07-19T08:23:55.847Z,8.10
2018-07-19T08:26:26.133Z,3.23
2018-07-19T08:28:56.504Z,7.03
2018-07-19T08:31:26.896Z,2.80
2018-07-19T08:33:57.291Z,1.67
2018-07-19T08:36:27.727Z,1.77
2018-07-19T08:38:58.053Z,2.07
2018-07-19T08:41:28.818Z,1.60
2018-07-19T08:43:59.161Z,2.10
2018-07-19T08:46:29.528Z,2.20
2018-07-19T08:48:59.850Z,2.23
2018-07-19T08:51:30.765Z,4.43
2018-07-19T08:54:01.141Z,2.13
2018-07-19T08:56:31.579Z,15.13
2018-07-19T08:59:02.022Z,4.50
2018-07-19T09:01:32.418Z,3.90
2018-07-19T09:04:02.854Z,4.83
2018-07-19T09:06:33.253Z,6.00
2018-07-19T09:09:03.775Z,3.30
2018-07-19T09:11:34.141Z,10.90
2018-07-19T09:14:04.728Z,3.30
2018-07-19T09:16:35.042Z,2.47
2018-07-19T09:19:05.816Z,2.10
2018-07-19T09:21:36.206Z,3.07
2018-07-19T09:24:06.629Z,3.20
2018-07-19T09:26:37.033Z,2.37
2018-07-19T09:29:07.424Z,2.70
2018-07-19T09:31:37.736Z,2.73
2018-07-19T09:34:08.116Z,2.93
2018-07-19T09:36:38.465Z,2.57
2018-07-19T09:39:11.890Z,3.27
2018-07-19T09:41:43.058Z,2.90
2018-07-19T09:44:13.358Z,2.80
2018-07-19T09:46:43.350Z,15.40
2018-07-19T09:49:13.690Z,35.63
2018-07-19T09:51:43.737Z,4.03
2018-07-19T09:54:29.653Z,3.60
2018-07-19T09:56:59.944Z,3.07
2018-07-19T09:59:30.203Z,3.60
2018-07-19T10:02:00.534Z,3.90
2018-07-19T10:04:31.697Z,3.20
2018-07-19T10:07:02.043Z,3.97
2018-07-19T10:09:32.354Z,4.03
2018-07-19T10:12:02.679Z,4.40
2018-07-19T10:14:32.964Z,4.50
2018-07-19T10:17:03.606Z,4.07
2018-07-19T10:19:33.930Z,4.40
2018-07-19T10:22:04.357Z,4.00
2018-07-19T10:24:34.778Z,4.50
2018-07-19T10:27:05.125Z,4.43
2018-07-19T10:29:35.464Z,4.73
2018-07-19T10:32:06.064Z,4.27
2018-07-19T10:34:36.317Z,4.53
2018-07-19T10:37:06.677Z,5.07
2018-07-19T10:39:37.017Z,5.60
2018-07-19T10:42:07.420Z,6.57
2018-07-19T10:44:37.768Z,5.40
2018-07-19T10:47:08.285Z,5.10
2018-07-19T10:49:38.551Z,5.03
2018-07-19T10:52:08.824Z,6.30
2018-07-19T10:54:39.066Z,4.80
2018-07-19T10:57:09.728Z,5.33
2018-07-19T10:59:39.993Z,4.63
2018-07-19T11:02:10.424Z,5.00
2018-07-19T11:04:40.662Z,4.40
2018-07-19T11:07:10.908Z,6.20
2018-07-19T11:09:41.201Z,3.73
2018-07-19T11:12:11.587Z,4.10
2018-07-19T11:14:41.786Z,3.60
2018-07-19T11:17:12.140Z,3.90
2018-07-19T11:19:42.387Z,3.30
2018-07-19T11:22:12.647Z,5.43
2018-07-19T11:24:42.966Z,3.73
2018-07-19T11:27:13.341Z,3.40
2018-07-19T11:29:43.877Z,3.40
2018-07-19T11:32:14.160Z,3.47
2018-07-19T11:34:44.444Z,5.63
2018-07-19T11:37:14.810Z,4.60
2018-07-19T11:39:45.285Z,3.93
2018-07-19T11:42:15.702Z,3.73
2018-07-19T11:44:46.187Z,4.07
2018-07-19T11:47:16.541Z,5.10
2018-07-19T11:49:46.857Z,4.83
2018-07-19T11:52:17.225Z,5.23
2018-07-19T11:54:47.554Z,5.13
2018-07-19T11:57:17.803Z,5.53
2018-07-19T11:59:48.060Z,6.50
2018-07-19T12:02:18.388Z,4.27
2018-07-19T12:04:48.696Z,4.37
2018-07-19T12:07:18.937Z,4.33
2018-07-19T12:09:49.265Z,4.40
2018-07-19T12:12:20.018Z,4.90
2018-07-19T12:14:50.263Z,6.00
2018-07-19T12:17:20.538Z,4.60
2018-07-19T12:19:50.844Z,5.00
2018-07-19T12:22:21.145Z,6.83
2018-07-19T12:24:51.397Z,6.37
2018-07-19T12:27:21.748Z,7.23
2018-07-19T12:29:52.017Z,7.33
2018-07-19T12:32:22.318Z,8.13
2018-07-19T12:34:52.581Z,9.87
2018-07-19T12:37:22.885Z,10.33
2018-07-19T12:39:53.228Z,9.23
2018-07-19T12:42:23.649Z,9.80
2018-07-19T12:44:53.925Z,9.93
2018-07-19T12:47:24.239Z,10.70
2018-07-19T12:49:54.496Z,11.83
2018-07-19T12:52:24.774Z,12.47
2018-07-19T12:54:55.056Z,11.37
2018-07-19T12:57:25.376Z,11.93
2018-07-19T12:59:55.658Z,11.87
2018-07-19T13:02:25.942Z,12.90
2018-07-19T13:04:55.925Z,12.50
2018-07-19T13:07:26.187Z,13.47
2018-07-19T13:09:56.464Z,13.60
2018-07-19T13:12:27.197Z,12.63
2018-07-19T13:14:57.495Z,11.10
2018-07-19T13:17:27.811Z,10.90
2018-07-19T13:19:58.101Z,12.07
2018-07-19T13:22:28.495Z,11.60
2018-07-19T13:24:58.957Z,11.60
2018-07-19T13:27:29.057Z,12.70
2018-07-19T13:29:59.142Z,12.37
2018-07-19T13:32:29.332Z,13.70
2018-07-19T13:34:59.739Z,12.67
2018-07-19T13:37:30.242Z,14.33
2018-07-19T13:40:00.554Z,14.10
2018-07-19T13:42:30.942Z,15.33
2018-07-19T13:45:01.302Z,15.60
2018-07-19T13:47:31.699Z,14.60
2018-07-19T13:50:02.018Z,14.10
2018-07-19T13:53:50.959Z,14.10
2018-07-19T13:56:21.538Z,14.40
2018-07-19T13:58:51.768Z,15.60
2018-07-19T14:01:22.141Z,14.93
2018-07-19T14:03:52.449Z,14.63
2018-07-19T14:06:22.774Z,14.60
2018-07-19T14:08:53.087Z,16.27
2018-07-19T14:11:23.464Z,17.47
2018-07-19T14:13:54.069Z,16.93
2018-07-19T14:16:24.459Z,17.67
2018-07-19T14:18:54.825Z,17.77
2018-07-19T14:21:25.137Z,19.50
2018-07-19T14:23:55.548Z,19.07
2018-07-19T14:26:26.048Z,18.77
2018-07-19T14:28:57.187Z,18.30
2018-07-19T14:31:27.568Z,18.43
2018-07-19T14:33:57.905Z,16.80
2018-07-19T14:36:28.205Z,17.87
2018-07-19T14:38:58.533Z,18.13
2018-07-19T14:41:28.908Z,17.13
2018-07-19T14:43:59.199Z,17.47
2018-07-19T14:46:29.476Z,17.63
2018-07-19T14:48:59.784Z,16.50
2018-07-19T14:51:30.114Z,16.53
2018-07-19T14:54:00.556Z,14.30
2018-07-19T14:56:30.880Z,14.53
2018-07-19T14:59:01.151Z,11.90
2018-07-19T15:01:31.457Z,12.70
2018-07-19T15:04:01.708Z,13.53
2018-07-19T15:06:32.017Z,11.40
2018-07-19T15:09:02.392Z,12.90
2018-07-19T15:11:32.687Z,10.70
2018-07-19T15:14:03.119Z,11.20
2018-07-19T15:16:33.465Z,10.57
2018-07-19T15:19:03.759Z,10.57
2018-07-19T15:21:34.056Z,10.27
2018-07-19T15:24:04.524Z,10.57
2018-07-19T15:26:34.874Z,10.60
2018-07-19T15:29:05.220Z,10.60
2018-07-19T15:31:35.528Z,10.17
2018-07-19T15:34:05.854Z,9.40
2018-07-19T15:36:36.161Z,8.73
2018-07-19T15:39:09.044Z,9.40
2018-07-19T15:41:39.695Z,9.17
2018-07-19T15:44:10.531Z,8.50
2018-07-19T15:46:41.048Z,10.50
2018-07-19T15:49:11.406Z,9.90
2018-07-19T15:51:41.760Z,10.10
2018-07-19T15:54:12.098Z,10.10
2018-07-19T15:56:42.513Z,9.97
2018-07-19T15:59:12.867Z,10.10
2018-07-19T16:01:43.139Z,10.10
2018-07-19T16:04:13.822Z,9.40
2018-07-19T16:06:44.367Z,9.60
2018-07-19T16:09:14.692Z,9.70
2018-07-19T16:11:45.035Z,10.13
2018-07-19T16:14:15.371Z,10.20
2018-07-19T16:16:45.710Z,10.33
2018-07-19T16:19:16.168Z,9.60
2018-07-19T16:21:46.470Z,9.40
2018-07-19T16:24:16.848Z,8.97
2018-07-19T16:26:47.275Z,8.47
2018-07-19T16:29:17.582Z,10.13
2018-07-19T16:31:47.955Z,8.90
2018-07-19T16:34:18.263Z,9.20
2018-07-19T16:36:48.260Z,9.33
2018-07-19T16:39:18.497Z,10.47
2018-07-19T16:41:48.636Z,10.47
2018-07-19T16:44:18.873Z,10.70
2018-07-19T16:46:49.175Z,10.50
2018-07-19T16:49:19.100Z,9.70
2018-07-19T16:51:49.403Z,10.70
2018-07-19T16:54:19.458Z,11.60
2018-07-19T16:56:49.657Z,11.27
2018-07-19T16:59:20.403Z,10.80
2018-07-19T17:01:50.734Z,10.53
2018-07-19T17:04:21.129Z,10.07
2018-07-19T17:06:51.618Z,10.27
2018-07-19T17:09:21.959Z,10.93
2018-07-19T17:11:52.312Z,13.00
2018-07-19T17:14:22.806Z,10.37
2018-07-19T17:16:53.167Z,9.03
2018-07-19T17:19:23.297Z,9.23
2018-07-19T17:21:53.495Z,7.73
2018-07-19T17:24:23.832Z,8.90
2018-07-19T17:26:53.869Z,9.50
2018-07-19T17:29:24.110Z,8.90
2018-07-19T17:31:54.459Z,9.17
2018-07-19T17:34:24.820Z,9.37
2018-07-19T17:36:55.192Z,9.00
2018-07-19T17:39:25.546Z,9.80
2018-07-19T17:41:55.853Z,9.43
2018-07-19T17:44:26.269Z,9.40
2018-07-19T17:46:56.528Z,10.00
2018-07-19T17:49:26.859Z,11.00
2018-07-19T17:51:57.163Z,11.80
2018-07-19T17:54:27.552Z,12.60
2018-07-19T17:56:57.812Z,12.03
2018-07-19T17:59:28.102Z,12.23
2018-07-19T18:01:58.457Z,12.40
2018-07-19T18:04:28.806Z,12.20
2018-07-19T18:06:59.148Z,12.33
2018-07-19T18:09:29.448Z,11.40
2018-07-19T18:11:59.992Z,15.37
2018-07-19T18:14:30.694Z,15.80
2018-07-19T18:17:00.985Z,13.17
2018-07-19T18:19:31.442Z,11.20
2018-07-19T18:22:01.850Z,13.23
2018-07-19T18:24:32.227Z,11.93
2018-07-19T18:27:02.595Z,11.10
2018-07-19T18:29:32.957Z,11.20
2018-07-19T18:32:03.357Z,11.97
2018-07-19T18:34:33.713Z,11.97
2018-07-19T18:37:04.051Z,11.83
2018-07-19T18:39:34.397Z,12.27
2018-07-19T18:42:04.814Z,11.37
2018-07-19T18:44:35.177Z,12.20
2018-07-19T18:47:05.627Z,10.87
2018-07-19T18:49:36.307Z,11.27
2018-07-19T18:52:06.809Z,12.57
2018-07-19T18:54:37.264Z,12.03
2018-07-19T18:57:07.616Z,12.23
2018-07-19T18:59:38.538Z,13.73
2018-07-19T19:02:09.052Z,12.37
2018-07-19T19:04:39.863Z,12.50
2018-07-19T19:07:09.904Z,13.33
2018-07-19T19:09:40.174Z,13.33
2018-07-19T19:12:10.832Z,14.73
2018-07-19T19:14:41.216Z,13.23
2018-07-19T19:17:11.691Z,14.10
2018-07-19T19:19:42.029Z,13.43
2018-07-19T19:22:12.400Z,13.33
2018-07-19T19:24:43.341Z,13.43
2018-07-19T19:27:13.742Z,13.47
2018-07-19T19:29:44.113Z,12.00
2018-07-19T19:32:14.083Z,11.60
2018-07-19T19:34:44.392Z,12.40
2018-07-19T19:37:14.791Z,13.00
2018-07-19T19:39:45.105Z,12.40
2018-07-19T19:42:15.479Z,12.37
2018-07-19T19:44:45.834Z,11.73
2018-07-19T19:47:16.192Z,11.43
2018-07-19T19:49:46.583Z,12.07
2018-07-19T19:52:17.636Z,12.00
2018-07-19T19:54:47.973Z,12.63
2018-07-19T19:57:18.855Z,12.97
2018-07-19T19:59:49.180Z,12.47
2018-07-19T20:02:19.535Z,11.87
2018-07-19T20:04:49.848Z,10.80
2018-07-19T20:07:20.341Z,12.37
2018-07-19T20:09:50.614Z,12.30
2018-07-19T20:12:20.934Z,12.77
2018-07-19T20:14:51.224Z,12.13
2018-07-19T20:17:21.510Z,13.57
2018-07-19T20:19:51.815Z,11.70
2018-07-19T20:22:22.337Z,11.83
2018-07-19T20:24:52.622Z,14.87
2018-07-19T20:27:22.993Z,12.47
2018-07-19T20:29:53.448Z,12.57
2018-07-19T20:32:23.837Z,12.40
2018-07-19T20:34:54.084Z,11.53
2018-07-19T20:37:24.111Z,11.03
2018-07-19T20:39:54.343Z,11.30
2018-07-19T20:42:24.656Z,10.40
2018-07-19T20:44:54.953Z,11.30
2018-07-19T20:47:25.263Z,10.40
2018-07-19T20:49:55.583Z,13.40
2018-07-19T20:52:25.945Z,11.10
2018-07-19T20:54:56.393Z,12.13
2018-07-19T20:57:26.710Z,11.57
2018-07-19T20:59:57.072Z,11.53
2018-07-19T21:02:27.445Z,11.40
2018-07-19T21:04:57.816Z,10.97
2018-07-19T21:07:28.199Z,10.63
2018-07-19T21:09:58.922Z,11.73
2018-07-19T21:12:29.307Z,11.00
2018-07-19T21:14:59.748Z,12.13
2018-07-19T21:17:30.176Z,12.23
2018-07-19T21:20:00.518Z,11.17
2018-07-19T21:22:30.906Z,12.27
2018-07-19T21:25:01.274Z,11.20
2018-07-19T21:27:31.556Z,10.43
2018-07-19T21:30:02.045Z,10.07
2018-07-19T21:32:32.427Z,9.37
2018-07-19T21:35:02.942Z,11.53
2018-07-19T21:37:33.420Z,12.70
2018-07-19T21:40:03.867Z,10.47
2018-07-19T21:42:34.388Z,10.73
2018-07-19T21:45:05.206Z,9.67
2018-07-19T21:47:35.752Z,10.73
2018-07-19T21:50:06.577Z,10.30
2018-07-19T21:52:36.969Z,9.70
2018-07-19T21:55:07.401Z,10.60
2018-07-19T21:57:37.775Z,9.47
2018-07-19T22:00:08.456Z,10.33
2018-07-19T22:02:38.986Z,10.63
2018-07-19T22:05:09.628Z,11.00
2018-07-19T22:07:40.106Z,10.97
2018-07-19T22:10:10.560Z,11.17
2018-07-19T22:12:41.002Z,10.60
2018-07-19T22:15:11.469Z,10.73
2018-07-19T22:17:41.974Z,10.73
2018-07-19T22:20:12.709Z,11.07
2018-07-19T22:22:43.215Z,9.07
2018-07-19T22:25:13.593Z,9.47
2018-07-19T22:27:43.979Z,10.13
2018-07-19T22:30:14.468Z,10.63
2018-07-19T22:32:44.857Z,10.70
2018-07-19T22:35:15.273Z,11.27
2018-07-19T22:37:45.600Z,9.53
2018-07-19T22:40:15.912Z,9.70
2018-07-19T22:42:46.314Z,9.00
2018-07-19T22:45:16.795Z,9.03
2018-07-19T22:47:47.172Z,9.40
2018-07-19T22:50:17.609Z,9.60
2018-07-19T22:52:47.946Z,9.23
2018-07-19T22:55:18.897Z,8.00
2018-07-19T22:57:49.329Z,7.90
2018-07-19T23:00:19.735Z,9.03
2018-07-19T23:02:50.035Z,8.90
2018-07-19T23:05:20.465Z,8.80
2018-07-19T23:07:50.937Z,8.57
2018-07-19T23:10:21.404Z,7.37
2018-07-19T23:12:51.762Z,7.10
2018-07-19T23:15:22.173Z,7.27
2018-07-19T23:17:52.637Z,6.90
2018-07-19T23:20:23.032Z,3.37
2018-07-19T23:22:56.822Z,3.40
2018-07-19T23:25:27.246Z,2.90
2018-07-19T23:27:58.562Z,3.70
2018-07-19T23:30:31.423Z,3.17
2018-07-19T23:33:01.855Z,2.90
2018-07-19T23:35:36.884Z,2.93
2018-07-19T23:38:10.556Z,3.50
2018-07-19T23:40:43.460Z,3.00
2018-07-19T23:43:17.313Z,2.97
2018-07-19T23:45:52.982Z,2.47
2018-07-19T23:48:23.333Z,2.80
2018-07-19T23:50:53.674Z,3.07
2018-07-19T23:53:24.066Z,3.10
2018-07-19T23:55:54.500Z,2.90
2018-07-19T23:58:24.874Z,3.20
